sensor_id;sensor_type;location;lat;lon;timestamp;P1;durP1;ratioP1;P2;durP2;ratioP2
68854;SDS011;69984;-43.570;172.580;2023-08-24T00:01:59;6.47;;;0.88;;
68854;SDS011;69984;-43.570;172.580;2023-08-24T00:04:26;4.93;;;0.90;;
68854;SDS011;69984;-43.570;172.580;2023-08-24T00:06:54;3.75;;;0.70;;
68854;SDS011;69984;-43.570;172.580;2023-08-24T00:09:21;2.85;;;0.65;;
68854;SDS011;69984;-43.570;172.580;2023-08-24T00:11:48;5.15;;;0.82;;
68854;SDS011;69984;-43.570;172.580;2023-08-24T00:14:15;4.30;;;0.50;;
68854;SDS011;69984;-43.570;172.580;2023-08-24T00:16:42;5.82;;;0.60;;
68854;SDS011;69984;-43.570;172.580;2023-08-24T00:19:09;5.55;;;0.80;;
68854;SDS011;69984;-43.570;172.580;2023-08-24T00:21:37;4.10;;;0.77;;
68854;SDS011;69984;-43.570;172.580;2023-08-24T00:24:04;5.80;;;0.95;;
68854;SDS011;69984;-43.570;172.580;2023-08-24T00:26:31;4.75;;;0.80;;
68854;SDS011;69984;-43.570;172.580;2023-08-24T00:28:58;5.50;;;0.80;;
68854;SDS011;69984;-43.570;172.580;2023-08-24T00:31:26;1.98;;;0.50;;
68854;SDS011;69984;-43.570;172.580;2023-08-24T00:33:53;2.45;;;0.77;;
68854;SDS011;69984;-43.570;172.580;2023-08-24T00:36:20;6.65;;;1.30;;
68854;SDS011;69984;-43.570;172.580;2023-08-24T00:38:48;3.72;;;0.75;;
68854;SDS011;69984;-43.570;172.580;2023-08-24T00:41:17;4.85;;;0.80;;
68854;SDS011;69984;-43.570;172.580;2023-08-24T00:43:44;6.43;;;1.08;;
68854;SDS011;69984;-43.570;172.580;2023-08-24T00:46:12;4.47;;;0.60;;
68854;SDS011;69984;-43.570;172.580;2023-08-24T00:48:39;7.30;;;1.00;;
68854;SDS011;69984;-43.570;172.580;2023-08-24T00:51:06;6.35;;;0.63;;
68854;SDS011;69984;-43.570;172.580;2023-08-24T00:53:34;8.85;;;0.90;;
68854;SDS011;69984;-43.570;172.580;2023-08-24T00:56:03;3.97;;;0.90;;
68854;SDS011;69984;-43.570;172.580;2023-08-24T00:58:31;2.13;;;0.73;;
68854;SDS011;69984;-43.570;172.580;2023-08-24T01:00:59;2.70;;;0.73;;
68854;SDS011;69984;-43.570;172.580;2023-08-24T01:03:26;2.35;;;0.60;;
68854;SDS011;69984;-43.570;172.580;2023-08-24T01:05:53;5.63;;;0.75;;
68854;SDS011;69984;-43.570;172.580;2023-08-24T01:08:21;5.05;;;1.10;;
68854;SDS011;69984;-43.570;172.580;2023-08-24T01:14:04;3.72;;;0.80;;
68854;SDS011;69984;-43.570;172.580;2023-08-24T01:16:34;3.88;;;1.02;;
68854;SDS011;69984;-43.570;172.580;2023-08-24T01:19:06;8.77;;;0.77;;
68854;SDS011;69984;-43.570;172.580;2023-08-24T01:21:47;3.40;;;0.85;;
68854;SDS011;69984;-43.570;172.580;2023-08-24T01:24:18;8.88;;;2.08;;
68854;SDS011;69984;-43.570;172.580;2023-08-24T01:26:58;4.25;;;0.50;;
68854;SDS011;69984;-43.570;172.580;2023-08-24T01:29:26;2.42;;;0.50;;
68854;SDS011;69984;-43.570;172.580;2023-08-24T01:31:54;5.68;;;1.17;;
68854;SDS011;69984;-43.570;172.580;2023-08-24T01:34:21;2.85;;;1.02;;
68854;SDS011;69984;-43.570;172.580;2023-08-24T01:36:48;4.78;;;0.65;;
68854;SDS011;69984;-43.570;172.580;2023-08-24T01:39:28;3.83;;;1.13;;
68854;SDS011;69984;-43.570;172.580;2023-08-24T01:42:02;2.50;;;0.60;;
68854;SDS011;69984;-43.570;172.580;2023-08-24T01:44:32;2.75;;;0.63;;
68854;SDS011;69984;-43.570;172.580;2023-08-24T01:47:05;3.22;;;0.45;;
68854;SDS011;69984;-43.570;172.580;2023-08-24T01:49:37;2.00;;;1.00;;
68854;SDS011;69984;-43.570;172.580;2023-08-24T01:52:05;1.27;;;0.90;;
68854;SDS011;69984;-43.570;172.580;2023-08-24T01:54:32;2.60;;;0.50;;
68854;SDS011;69984;-43.570;172.580;2023-08-24T01:57:00;3.30;;;0.68;;
68854;SDS011;69984;-43.570;172.580;2023-08-24T01:59:28;2.60;;;0.52;;
68854;SDS011;69984;-43.570;172.580;2023-08-24T02:01:55;2.28;;;0.88;;
68854;SDS011;69984;-43.570;172.580;2023-08-24T02:04:22;4.35;;;0.70;;
68854;SDS011;69984;-43.570;172.580;2023-08-24T02:06:49;3.13;;;0.82;;
68854;SDS011;69984;-43.570;172.580;2023-08-24T02:09:16;5.95;;;1.60;;
68854;SDS011;69984;-43.570;172.580;2023-08-24T02:11:43;4.35;;;0.77;;
68854;SDS011;69984;-43.570;172.580;2023-08-24T02:14:10;1.73;;;0.50;;
68854;SDS011;69984;-43.570;172.580;2023-08-24T02:16:37;11.85;;;1.60;;
68854;SDS011;69984;-43.570;172.580;2023-08-24T02:19:05;5.15;;;0.90;;
68854;SDS011;69984;-43.570;172.580;2023-08-24T02:21:34;4.55;;;0.63;;
68854;SDS011;69984;-43.570;172.580;2023-08-24T02:24:03;3.60;;;0.60;;
68854;SDS011;69984;-43.570;172.580;2023-08-24T02:26:31;13.52;;;1.23;;
68854;SDS011;69984;-43.570;172.580;2023-08-24T02:28:58;1.08;;;0.55;;
68854;SDS011;69984;-43.570;172.580;2023-08-24T02:31:26;7.82;;;0.75;;
68854;SDS011;69984;-43.570;172.580;2023-08-24T02:33:53;5.05;;;0.90;;
68854;SDS011;69984;-43.570;172.580;2023-08-24T02:36:20;8.52;;;0.77;;
68854;SDS011;69984;-43.570;172.580;2023-08-24T02:38:47;4.22;;;0.90;;
68854;SDS011;69984;-43.570;172.580;2023-08-24T02:41:14;2.85;;;0.70;;
68854;SDS011;69984;-43.570;172.580;2023-08-24T02:43:41;5.07;;;1.00;;
68854;SDS011;69984;-43.570;172.580;2023-08-24T02:46:08;3.35;;;0.57;;
68854;SDS011;69984;-43.570;172.580;2023-08-24T02:48:36;3.60;;;0.70;;
68854;SDS011;69984;-43.570;172.580;2023-08-24T02:51:03;5.88;;;0.50;;
68854;SDS011;69984;-43.570;172.580;2023-08-24T02:53:31;3.55;;;0.82;;
68854;SDS011;69984;-43.570;172.580;2023-08-24T02:55:59;2.10;;;1.10;;
68854;SDS011;69984;-43.570;172.580;2023-08-24T02:58:26;3.90;;;0.75;;
68854;SDS011;69984;-43.570;172.580;2023-08-24T03:00:55;6.95;;;0.60;;
68854;SDS011;69984;-43.570;172.580;2023-08-24T03:03:26;4.03;;;0.90;;
68854;SDS011;69984;-43.570;172.580;2023-08-24T03:05:58;3.10;;;0.55;;
68854;SDS011;69984;-43.570;172.580;2023-08-24T03:08:27;3.67;;;0.73;;
68854;SDS011;69984;-43.570;172.580;2023-08-24T03:10:54;1.48;;;0.60;;
68854;SDS011;69984;-43.570;172.580;2023-08-24T03:13:22;7.38;;;0.70;;
68854;SDS011;69984;-43.570;172.580;2023-08-24T03:15:49;2.38;;;0.60;;
68854;SDS011;69984;-43.570;172.580;2023-08-24T03:18:17;3.28;;;0.80;;
68854;SDS011;69984;-43.570;172.580;2023-08-24T03:20:45;4.45;;;0.55;;
68854;SDS011;69984;-43.570;172.580;2023-08-24T03:23:16;8.52;;;1.00;;
68854;SDS011;69984;-43.570;172.580;2023-08-24T03:25:44;4.70;;;0.70;;
68854;SDS011;69984;-43.570;172.580;2023-08-24T03:28:11;5.22;;;1.13;;
68854;SDS011;69984;-43.570;172.580;2023-08-24T03:30:38;5.18;;;0.75;;
68854;SDS011;69984;-43.570;172.580;2023-08-24T03:33:12;5.22;;;1.27;;
68854;SDS011;69984;-43.570;172.580;2023-08-24T03:35:39;2.72;;;0.90;;
68854;SDS011;69984;-43.570;172.580;2023-08-24T03:38:06;2.40;;;0.80;;
68854;SDS011;69984;-43.570;172.580;2023-08-24T03:40:34;5.15;;;1.00;;
68854;SDS011;69984;-43.570;172.580;2023-08-24T03:43:02;3.15;;;0.60;;
68854;SDS011;69984;-43.570;172.580;2023-08-24T03:45:29;5.13;;;0.63;;
68854;SDS011;69984;-43.570;172.580;2023-08-24T03:47:57;5.95;;;1.15;;
68854;SDS011;69984;-43.570;172.580;2023-08-24T03:50:24;1.70;;;0.52;;
68854;SDS011;69984;-43.570;172.580;2023-08-24T03:52:52;4.38;;;1.55;;
68854;SDS011;69984;-43.570;172.580;2023-08-24T03:55:20;3.63;;;0.88;;
68854;SDS011;69984;-43.570;172.580;2023-08-24T03:57:48;4.57;;;0.73;;
68854;SDS011;69984;-43.570;172.580;2023-08-24T04:00:15;9.57;;;1.00;;
68854;SDS011;69984;-43.570;172.580;2023-08-24T04:02:43;3.03;;;0.70;;
68854;SDS011;69984;-43.570;172.580;2023-08-24T04:05:11;3.00;;;0.77;;
68854;SDS011;69984;-43.570;172.580;2023-08-24T04:07:38;3.47;;;0.70;;
68854;SDS011;69984;-43.570;172.580;2023-08-24T04:10:07;7.28;;;0.80;;
68854;SDS011;69984;-43.570;172.580;2023-08-24T04:12:34;2.10;;;0.70;;
68854;SDS011;69984;-43.570;172.580;2023-08-24T04:15:01;5.10;;;1.13;;
68854;SDS011;69984;-43.570;172.580;2023-08-24T04:17:30;9.18;;;0.98;;
68854;SDS011;69984;-43.570;172.580;2023-08-24T04:19:57;5.60;;;0.90;;
68854;SDS011;69984;-43.570;172.580;2023-08-24T04:22:24;2.88;;;0.60;;
68854;SDS011;69984;-43.570;172.580;2023-08-24T04:24:51;5.63;;;0.65;;
68854;SDS011;69984;-43.570;172.580;2023-08-24T04:27:18;5.60;;;1.08;;
68854;SDS011;69984;-43.570;172.580;2023-08-24T04:29:47;5.85;;;0.90;;
68854;SDS011;69984;-43.570;172.580;2023-08-24T04:32:14;7.82;;;0.98;;
68854;SDS011;69984;-43.570;172.580;2023-08-24T04:34:41;3.90;;;0.80;;
68854;SDS011;69984;-43.570;172.580;2023-08-24T04:37:08;1.75;;;1.02;;
68854;SDS011;69984;-43.570;172.580;2023-08-24T04:39:35;4.88;;;1.15;;
68854;SDS011;69984;-43.570;172.580;2023-08-24T04:42:03;2.55;;;1.23;;
68854;SDS011;69984;-43.570;172.580;2023-08-24T04:44:30;1.65;;;0.80;;
68854;SDS011;69984;-43.570;172.580;2023-08-24T04:46:58;3.60;;;1.15;;
68854;SDS011;69984;-43.570;172.580;2023-08-24T04:49:26;9.38;;;1.02;;
68854;SDS011;69984;-43.570;172.580;2023-08-24T04:51:54;3.85;;;1.05;;
68854;SDS011;69984;-43.570;172.580;2023-08-24T04:54:21;6.65;;;1.48;;
68854;SDS011;69984;-43.570;172.580;2023-08-24T04:56:48;7.30;;;1.58;;
68854;SDS011;69984;-43.570;172.580;2023-08-24T04:59:15;2.97;;;1.05;;
68854;SDS011;69984;-43.570;172.580;2023-08-24T05:01:42;2.50;;;1.20;;
68854;SDS011;69984;-43.570;172.580;2023-08-24T05:04:09;4.55;;;1.45;;
68854;SDS011;69984;-43.570;172.580;2023-08-24T05:06:36;2.38;;;1.38;;
68854;SDS011;69984;-43.570;172.580;2023-08-24T05:09:03;4.60;;;1.83;;
68854;SDS011;69984;-43.570;172.580;2023-08-24T05:11:30;5.57;;;2.10;;
68854;SDS011;69984;-43.570;172.580;2023-08-24T05:13:57;6.43;;;1.60;;
68854;SDS011;69984;-43.570;172.580;2023-08-24T05:16:24;5.35;;;1.30;;
68854;SDS011;69984;-43.570;172.580;2023-08-24T05:18:53;6.38;;;1.63;;
68854;SDS011;69984;-43.570;172.580;2023-08-24T05:21:20;5.32;;;1.50;;
68854;SDS011;69984;-43.570;172.580;2023-08-24T05:23:47;14.38;;;1.73;;
68854;SDS011;69984;-43.570;172.580;2023-08-24T05:26:14;6.10;;;1.55;;
68854;SDS011;69984;-43.570;172.580;2023-08-24T05:28:48;9.63;;;1.80;;
68854;SDS011;69984;-43.570;172.580;2023-08-24T05:31:15;3.95;;;1.58;;
68854;SDS011;69984;-43.570;172.580;2023-08-24T05:33:42;8.70;;;1.75;;
68854;SDS011;69984;-43.570;172.580;2023-08-24T05:36:10;4.40;;;2.40;;
68854;SDS011;69984;-43.570;172.580;2023-08-24T05:38:37;5.97;;;2.20;;
68854;SDS011;69984;-43.570;172.580;2023-08-24T05:41:10;4.03;;;2.13;;
68854;SDS011;69984;-43.570;172.580;2023-08-24T05:43:37;7.40;;;2.10;;
68854;SDS011;69984;-43.570;172.580;2023-08-24T05:46:04;4.15;;;2.25;;
68854;SDS011;69984;-43.570;172.580;2023-08-24T05:48:31;11.07;;;2.55;;
68854;SDS011;69984;-43.570;172.580;2023-08-24T05:50:58;7.35;;;2.63;;
68854;SDS011;69984;-43.570;172.580;2023-08-24T05:53:25;6.82;;;2.97;;
68854;SDS011;69984;-43.570;172.580;2023-08-24T05:55:56;7.15;;;3.00;;
68854;SDS011;69984;-43.570;172.580;2023-08-24T05:58:24;5.25;;;2.88;;
68854;SDS011;69984;-43.570;172.580;2023-08-24T06:00:58;6.20;;;2.80;;
68854;SDS011;69984;-43.570;172.580;2023-08-24T06:03:25;11.00;;;2.90;;
68854;SDS011;69984;-43.570;172.580;2023-08-24T06:05:54;5.47;;;3.00;;
68854;SDS011;69984;-43.570;172.580;2023-08-24T06:08:28;4.90;;;2.80;;
68854;SDS011;69984;-43.570;172.580;2023-08-24T06:10:56;11.75;;;3.17;;
68854;SDS011;69984;-43.570;172.580;2023-08-24T06:13:24;10.48;;;3.38;;
68854;SDS011;69984;-43.570;172.580;2023-08-24T06:15:51;6.55;;;3.70;;
68854;SDS011;69984;-43.570;172.580;2023-08-24T06:18:19;7.85;;;3.47;;
68854;SDS011;69984;-43.570;172.580;2023-08-24T06:20:46;10.35;;;3.72;;
68854;SDS011;69984;-43.570;172.580;2023-08-24T06:23:17;10.57;;;3.75;;
68854;SDS011;69984;-43.570;172.580;2023-08-24T06:25:45;8.60;;;3.47;;
68854;SDS011;69984;-43.570;172.580;2023-08-24T06:28:12;12.02;;;4.25;;
68854;SDS011;69984;-43.570;172.580;2023-08-24T06:30:40;10.60;;;4.47;;
68854;SDS011;69984;-43.570;172.580;2023-08-24T06:33:08;11.18;;;4.03;;
68854;SDS011;69984;-43.570;172.580;2023-08-24T06:35:39;11.00;;;4.57;;
68854;SDS011;69984;-43.570;172.580;2023-08-24T06:38:07;11.38;;;4.03;;
68854;SDS011;69984;-43.570;172.580;2023-08-24T06:40:34;11.55;;;5.53;;
68854;SDS011;69984;-43.570;172.580;2023-08-24T06:45:36;14.65;;;5.90;;
68854;SDS011;69984;-43.570;172.580;2023-08-24T06:48:04;14.35;;;6.95;;
68854;SDS011;69984;-43.570;172.580;2023-08-24T06:50:33;24.45;;;8.10;;
68854;SDS011;69984;-43.570;172.580;2023-08-24T06:53:02;18.90;;;7.40;;
68854;SDS011;69984;-43.570;172.580;2023-08-24T06:55:30;22.17;;;10.40;;
68854;SDS011;69984;-43.570;172.580;2023-08-24T06:57:57;21.45;;;10.38;;
68854;SDS011;69984;-43.570;172.580;2023-08-24T07:00:24;18.45;;;7.55;;
68854;SDS011;69984;-43.570;172.580;2023-08-24T07:02:51;14.77;;;5.50;;
68854;SDS011;69984;-43.570;172.580;2023-08-24T07:05:19;19.77;;;3.75;;
68854;SDS011;69984;-43.570;172.580;2023-08-24T07:07:46;5.95;;;3.03;;
68854;SDS011;69984;-43.570;172.580;2023-08-24T07:10:15;3.90;;;2.45;;
68854;SDS011;69984;-43.570;172.580;2023-08-24T07:12:43;5.97;;;2.85;;
68854;SDS011;69984;-43.570;172.580;2023-08-24T07:15:13;13.10;;;4.15;;
68854;SDS011;69984;-43.570;172.580;2023-08-24T07:17:41;5.57;;;3.47;;
68854;SDS011;69984;-43.570;172.580;2023-08-24T07:20:08;5.47;;;3.60;;
68854;SDS011;69984;-43.570;172.580;2023-08-24T07:22:37;5.85;;;3.17;;
68854;SDS011;69984;-43.570;172.580;2023-08-24T07:25:04;4.95;;;3.30;;
68854;SDS011;69984;-43.570;172.580;2023-08-24T07:27:32;6.20;;;2.90;;
68854;SDS011;69984;-43.570;172.580;2023-08-24T07:29:59;8.35;;;3.08;;
68854;SDS011;69984;-43.570;172.580;2023-08-24T07:32:31;6.68;;;2.88;;
68854;SDS011;69984;-43.570;172.580;2023-08-24T07:34:58;9.48;;;2.95;;
68854;SDS011;69984;-43.570;172.580;2023-08-24T07:37:26;5.68;;;2.65;;
68854;SDS011;69984;-43.570;172.580;2023-08-24T07:39:53;7.13;;;2.25;;
68854;SDS011;69984;-43.570;172.580;2023-08-24T07:42:20;7.53;;;2.40;;
68854;SDS011;69984;-43.570;172.580;2023-08-24T07:44:48;6.30;;;2.20;;
68854;SDS011;69984;-43.570;172.580;2023-08-24T07:47:16;2.88;;;2.20;;
68854;SDS011;69984;-43.570;172.580;2023-08-24T07:49:43;5.32;;;2.20;;
68854;SDS011;69984;-43.570;172.580;2023-08-24T07:52:10;4.22;;;2.35;;
68854;SDS011;69984;-43.570;172.580;2023-08-24T07:54:38;2.25;;;1.85;;
68854;SDS011;69984;-43.570;172.580;2023-08-24T07:57:05;4.22;;;1.70;;
68854;SDS011;69984;-43.570;172.580;2023-08-24T07:59:32;5.95;;;2.00;;
68854;SDS011;69984;-43.570;172.580;2023-08-24T08:02:00;4.25;;;2.15;;
68854;SDS011;69984;-43.570;172.580;2023-08-24T08:04:27;4.05;;;2.10;;
68854;SDS011;69984;-43.570;172.580;2023-08-24T08:06:54;8.70;;;3.05;;
68854;SDS011;69984;-43.570;172.580;2023-08-24T08:09:21;3.15;;;2.85;;
68854;SDS011;69984;-43.570;172.580;2023-08-24T08:11:48;4.10;;;3.20;;
68854;SDS011;69984;-43.570;172.580;2023-08-24T08:14:16;7.20;;;4.15;;
68854;SDS011;69984;-43.570;172.580;2023-08-24T08:16:43;8.30;;;3.47;;
68854;SDS011;69984;-43.570;172.580;2023-08-24T08:19:10;8.07;;;3.00;;
68854;SDS011;69984;-43.570;172.580;2023-08-24T08:21:37;8.55;;;3.38;;
68854;SDS011;69984;-43.570;172.580;2023-08-24T08:24:04;6.53;;;2.78;;
68854;SDS011;69984;-43.570;172.580;2023-08-24T08:26:31;2.55;;;2.35;;
68854;SDS011;69984;-43.570;172.580;2023-08-24T08:28:59;6.25;;;3.00;;
68854;SDS011;69984;-43.570;172.580;2023-08-24T08:31:26;7.50;;;3.70;;
68854;SDS011;69984;-43.570;172.580;2023-08-24T08:33:53;4.10;;;3.70;;
68854;SDS011;69984;-43.570;172.580;2023-08-24T08:36:20;12.85;;;6.95;;
68854;SDS011;69984;-43.570;172.580;2023-08-24T08:38:47;13.82;;;7.05;;
68854;SDS011;69984;-43.570;172.580;2023-08-24T08:41:14;10.98;;;7.03;;
68854;SDS011;69984;-43.570;172.580;2023-08-24T08:43:43;15.07;;;6.72;;
68854;SDS011;69984;-43.570;172.580;2023-08-24T08:46:11;17.42;;;7.85;;
68854;SDS011;69984;-43.570;172.580;2023-08-24T08:48:39;14.05;;;8.43;;
68854;SDS011;69984;-43.570;172.580;2023-08-24T08:51:06;12.63;;;7.90;;
68854;SDS011;69984;-43.570;172.580;2023-08-24T08:53:36;15.98;;;9.80;;
68854;SDS011;69984;-43.570;172.580;2023-08-24T08:56:03;20.67;;;10.27;;
68854;SDS011;69984;-43.570;172.580;2023-08-24T08:58:32;18.42;;;9.52;;
68854;SDS011;69984;-43.570;172.580;2023-08-24T09:01:04;29.60;;;10.25;;
68854;SDS011;69984;-43.570;172.580;2023-08-24T09:03:32;18.75;;;9.32;;
68854;SDS011;69984;-43.570;172.580;2023-08-24T09:06:00;16.23;;;10.13;;
68854;SDS011;69984;-43.570;172.580;2023-08-24T09:08:29;30.50;;;15.02;;
68854;SDS011;69984;-43.570;172.580;2023-08-24T09:11:00;38.30;;;18.40;;
68854;SDS011;69984;-43.570;172.580;2023-08-24T09:13:29;33.90;;;19.15;;
68854;SDS011;69984;-43.570;172.580;2023-08-24T09:18:35;37.15;;;18.75;;
68854;SDS011;69984;-43.570;172.580;2023-08-24T09:21:10;39.83;;;18.90;;
68854;SDS011;69984;-43.570;172.580;2023-08-24T09:23:59;54.53;;;22.30;;
68854;SDS011;69984;-43.570;172.580;2023-08-24T09:26:29;49.33;;;22.70;;
68854;SDS011;69984;-43.570;172.580;2023-08-24T09:28:57;58.90;;;27.85;;
68854;SDS011;69984;-43.570;172.580;2023-08-24T09:31:35;65.80;;;30.00;;
68854;SDS011;69984;-43.570;172.580;2023-08-24T09:34:05;69.82;;;31.60;;
68854;SDS011;69984;-43.570;172.580;2023-08-24T09:36:33;70.50;;;31.52;;
68854;SDS011;69984;-43.570;172.580;2023-08-24T09:39:02;63.55;;;32.33;;
68854;SDS011;69984;-43.570;172.580;2023-08-24T09:41:37;60.92;;;27.55;;
68854;SDS011;69984;-43.570;172.580;2023-08-24T09:44:05;54.08;;;25.05;;
68854;SDS011;69984;-43.570;172.580;2023-08-24T09:46:36;53.10;;;25.73;;
68854;SDS011;69984;-43.570;172.580;2023-08-24T09:49:07;52.38;;;25.67;;
68854;SDS011;69984;-43.570;172.580;2023-08-24T09:51:37;61.25;;;26.88;;
68854;SDS011;69984;-43.570;172.580;2023-08-24T09:56:40;46.10;;;21.75;;
68854;SDS011;69984;-43.570;172.580;2023-08-24T10:01:40;21.67;;;11.75;;
68854;SDS011;69984;-43.570;172.580;2023-08-24T10:04:14;12.60;;;7.10;;
68854;SDS011;69984;-43.570;172.580;2023-08-24T10:06:44;7.97;;;4.47;;
68854;SDS011;69984;-43.570;172.580;2023-08-24T10:09:18;9.60;;;3.40;;
68854;SDS011;69984;-43.570;172.580;2023-08-24T10:11:52;11.77;;;3.58;;
68854;SDS011;69984;-43.570;172.580;2023-08-24T10:14:29;14.23;;;3.40;;
68854;SDS011;69984;-43.570;172.580;2023-08-24T10:17:02;9.38;;;3.40;;
68854;SDS011;69984;-43.570;172.580;2023-08-24T10:19:29;6.00;;;2.80;;
68854;SDS011;69984;-43.570;172.580;2023-08-24T10:21:57;4.03;;;2.17;;
68854;SDS011;69984;-43.570;172.580;2023-08-24T10:26:54;2.22;;;1.65;;
68854;SDS011;69984;-43.570;172.580;2023-08-24T10:29:23;1.70;;;1.27;;
68854;SDS011;69984;-43.570;172.580;2023-08-24T10:31:53;1.50;;;1.40;;
68854;SDS011;69984;-43.570;172.580;2023-08-24T10:34:21;3.03;;;2.03;;
68854;SDS011;69984;-43.570;172.580;2023-08-24T10:36:48;5.05;;;2.90;;
68854;SDS011;69984;-43.570;172.580;2023-08-24T10:39:17;11.55;;;5.20;;
68854;SDS011;69984;-43.570;172.580;2023-08-24T10:41:52;13.18;;;8.50;;
68854;SDS011;69984;-43.570;172.580;2023-08-24T10:44:44;7.60;;;5.22;;
68854;SDS011;69984;-43.570;172.580;2023-08-24T10:47:13;10.35;;;5.97;;
68854;SDS011;69984;-43.570;172.580;2023-08-24T10:49:41;14.27;;;7.35;;
68854;SDS011;69984;-43.570;172.580;2023-08-24T10:52:25;23.00;;;11.68;;
68854;SDS011;69984;-43.570;172.580;2023-08-24T10:55:05;25.52;;;11.27;;
68854;SDS011;69984;-43.570;172.580;2023-08-24T10:57:55;20.88;;;11.73;;
68854;SDS011;69984;-43.570;172.580;2023-08-24T11:00:25;24.35;;;12.38;;
68854;SDS011;69984;-43.570;172.580;2023-08-24T11:02:54;23.58;;;13.38;;
68854;SDS011;69984;-43.570;172.580;2023-08-24T11:05:26;27.30;;;13.38;;
68854;SDS011;69984;-43.570;172.580;2023-08-24T11:07:59;20.33;;;11.52;;
68854;SDS011;69984;-43.570;172.580;2023-08-24T11:10:44;22.40;;;12.43;;
68854;SDS011;69984;-43.570;172.580;2023-08-24T11:13:13;28.33;;;16.83;;
68854;SDS011;69984;-43.570;172.580;2023-08-24T11:15:44;30.42;;;15.73;;
68854;SDS011;69984;-43.570;172.580;2023-08-24T11:18:25;38.47;;;17.90;;
68854;SDS011;69984;-43.570;172.580;2023-08-24T11:20:54;41.38;;;18.67;;
68854;SDS011;69984;-43.570;172.580;2023-08-24T11:23:23;38.50;;;17.92;;
68854;SDS011;69984;-43.570;172.580;2023-08-24T11:25:52;37.03;;;16.48;;
68854;SDS011;69984;-43.570;172.580;2023-08-24T11:28:22;38.13;;;16.63;;
68854;SDS011;69984;-43.570;172.580;2023-08-24T11:30:51;30.23;;;15.52;;
68854;SDS011;69984;-43.570;172.580;2023-08-24T11:33:32;53.35;;;22.42;;
68854;SDS011;69984;-43.570;172.580;2023-08-24T11:36:00;49.50;;;19.17;;
68854;SDS011;69984;-43.570;172.580;2023-08-24T11:38:39;37.83;;;17.95;;
68854;SDS011;69984;-43.570;172.580;2023-08-24T11:41:10;38.35;;;17.17;;
68854;SDS011;69984;-43.570;172.580;2023-08-24T11:43:38;37.35;;;17.30;;
68854;SDS011;69984;-43.570;172.580;2023-08-24T11:46:05;34.80;;;17.80;;
68854;SDS011;69984;-43.570;172.580;2023-08-24T11:48:32;37.25;;;18.73;;
68854;SDS011;69984;-43.570;172.580;2023-08-24T11:51:02;25.02;;;14.48;;
68854;SDS011;69984;-43.570;172.580;2023-08-24T11:53:29;27.35;;;13.85;;
68854;SDS011;69984;-43.570;172.580;2023-08-24T11:55:57;29.58;;;14.27;;
68854;SDS011;69984;-43.570;172.580;2023-08-24T11:58:27;43.42;;;19.30;;
68854;SDS011;69984;-43.570;172.580;2023-08-24T12:00:54;40.00;;;19.67;;
68854;SDS011;69984;-43.570;172.580;2023-08-24T12:03:22;44.60;;;20.75;;
68854;SDS011;69984;-43.570;172.580;2023-08-24T12:05:49;58.60;;;24.88;;
68854;SDS011;69984;-43.570;172.580;2023-08-24T12:08:16;58.42;;;24.48;;
68854;SDS011;69984;-43.570;172.580;2023-08-24T12:10:43;55.03;;;22.98;;
68854;SDS011;69984;-43.570;172.580;2023-08-24T12:13:11;53.05;;;21.90;;
68854;SDS011;69984;-43.570;172.580;2023-08-24T12:15:40;40.25;;;18.42;;
68854;SDS011;69984;-43.570;172.580;2023-08-24T12:18:08;40.05;;;18.98;;
68854;SDS011;69984;-43.570;172.580;2023-08-24T12:20:36;51.03;;;19.63;;
68854;SDS011;69984;-43.570;172.580;2023-08-24T12:23:03;53.90;;;25.23;;
68854;SDS011;69984;-43.570;172.580;2023-08-24T12:25:35;51.10;;;20.65;;
68854;SDS011;69984;-43.570;172.580;2023-08-24T12:30:48;37.38;;;17.95;;
68854;SDS011;69984;-43.570;172.580;2023-08-24T12:33:25;36.97;;;16.25;;
68854;SDS011;69984;-43.570;172.580;2023-08-24T12:35:54;26.10;;;14.50;;
68854;SDS011;69984;-43.570;172.580;2023-08-24T12:38:22;34.97;;;15.07;;
68854;SDS011;69984;-43.570;172.580;2023-08-24T12:40:50;30.20;;;15.50;;
68854;SDS011;69984;-43.570;172.580;2023-08-24T12:43:18;38.53;;;16.98;;
68854;SDS011;69984;-43.570;172.580;2023-08-24T12:45:46;32.70;;;17.55;;
68854;SDS011;69984;-43.570;172.580;2023-08-24T12:48:13;29.45;;;16.05;;
68854;SDS011;69984;-43.570;172.580;2023-08-24T12:50:40;39.90;;;15.68;;
68854;SDS011;69984;-43.570;172.580;2023-08-24T12:53:07;30.40;;;16.92;;
68854;SDS011;69984;-43.570;172.580;2023-08-24T12:55:35;34.22;;;16.50;;
68854;SDS011;69984;-43.570;172.580;2023-08-24T12:58:05;31.63;;;15.90;;
68854;SDS011;69984;-43.570;172.580;2023-08-24T13:00:32;40.63;;;16.08;;
68854;SDS011;69984;-43.570;172.580;2023-08-24T13:03:00;33.80;;;15.63;;
68854;SDS011;69984;-43.570;172.580;2023-08-24T13:05:27;34.33;;;15.63;;
68854;SDS011;69984;-43.570;172.580;2023-08-24T13:07:54;32.40;;;15.50;;
68854;SDS011;69984;-43.570;172.580;2023-08-24T13:10:21;39.67;;;16.08;;
68854;SDS011;69984;-43.570;172.580;2023-08-24T13:12:48;34.90;;;17.05;;
68854;SDS011;69984;-43.570;172.580;2023-08-24T13:15:16;31.10;;;15.82;;
68854;SDS011;69984;-43.570;172.580;2023-08-24T13:17:43;35.58;;;16.88;;
68854;SDS011;69984;-43.570;172.580;2023-08-24T13:20:10;31.08;;;15.70;;
68854;SDS011;69984;-43.570;172.580;2023-08-24T13:22:37;28.48;;;15.38;;
68854;SDS011;69984;-43.570;172.580;2023-08-24T13:25:04;32.45;;;15.80;;
68854;SDS011;69984;-43.570;172.580;2023-08-24T13:27:32;34.35;;;16.35;;
68854;SDS011;69984;-43.570;172.580;2023-08-24T13:30:02;35.20;;;16.33;;
68854;SDS011;69984;-43.570;172.580;2023-08-24T13:32:29;32.55;;;17.13;;
68854;SDS011;69984;-43.570;172.580;2023-08-24T13:34:57;33.65;;;16.95;;
68854;SDS011;69984;-43.570;172.580;2023-08-24T13:37:24;32.90;;;15.63;;
68854;SDS011;69984;-43.570;172.580;2023-08-24T13:39:51;34.47;;;15.88;;
68854;SDS011;69984;-43.570;172.580;2023-08-24T13:42:18;29.73;;;14.90;;
68854;SDS011;69984;-43.570;172.580;2023-08-24T13:44:45;34.20;;;15.15;;
68854;SDS011;69984;-43.570;172.580;2023-08-24T13:47:13;27.58;;;15.45;;
68854;SDS011;69984;-43.570;172.580;2023-08-24T13:49:40;26.83;;;13.27;;
68854;SDS011;69984;-43.570;172.580;2023-08-24T13:52:07;25.27;;;13.05;;
68854;SDS011;69984;-43.570;172.580;2023-08-24T13:54:35;21.08;;;12.23;;
68854;SDS011;69984;-43.570;172.580;2023-08-24T13:57:02;35.30;;;13.75;;
68854;SDS011;69984;-43.570;172.580;2023-08-24T13:59:29;26.45;;;13.70;;
68854;SDS011;69984;-43.570;172.580;2023-08-24T14:01:56;28.13;;;13.45;;
68854;SDS011;69984;-43.570;172.580;2023-08-24T14:04:23;23.80;;;12.93;;
68854;SDS011;69984;-43.570;172.580;2023-08-24T14:06:50;28.60;;;14.48;;
68854;SDS011;69984;-43.570;172.580;2023-08-24T14:09:17;24.95;;;13.95;;
68854;SDS011;69984;-43.570;172.580;2023-08-24T14:11:44;34.45;;;14.55;;
68854;SDS011;69984;-43.570;172.580;2023-08-24T14:14:13;26.98;;;13.80;;
68854;SDS011;69984;-43.570;172.580;2023-08-24T14:16:40;32.53;;;13.52;;
68854;SDS011;69984;-43.570;172.580;2023-08-24T14:19:07;28.40;;;14.77;;
68854;SDS011;69984;-43.570;172.580;2023-08-24T14:21:34;30.38;;;14.55;;
68854;SDS011;69984;-43.570;172.580;2023-08-24T14:24:02;29.48;;;14.40;;
68854;SDS011;69984;-43.570;172.580;2023-08-24T14:26:29;26.50;;;13.50;;